Time;durP1;ratioP1;P1;durP2;ratioP2;P2;SDS_P1;SDS_P2;PMS_P1;PMS_P2;Temp;Humidity;BMP_temperature;BMP_pressure;BME280_temperature;BME280_humidity;BME280_pressure;Samples;Min_cycle;Max_cycle;Signal;HPM_P1;HPM_P2
2023/03/27 00:01:48;;;;;;;12.98;0.85;;;;;;;;;;5088374;28;20152;-69
2023/03/27 00:04:15;;;;;;;7.03;0.80;;;;;;;;;;5070217;28;20067;-69
2023/03/27 00:06:44;;;;;;;11.30;2.22;;;;;;;;;;5071144;28;20047;-69
2023/03/27 00:09:11;;;;;;;8.18;1.02;;;;;;;;;;5087186;28;20071;-69
2023/03/27 00:11:40;;;;;;;6.70;0.90;;;;;;;;;;5065358;28;20094;-69
2023/03/27 00:14:08;;;;;;;12.85;1.35;;;;;;;;;;5088648;28;20056;-69
2023/03/27 00:16:36;;;;;;;12.02;1.23;;;;;;;;;;5086293;28;20071;-69
2023/03/27 00:19:03;;;;;;;10.73;1.40;;;;;;;;;;5074608;28;20045;-69
2023/03/27 00:21:30;;;;;;;9.50;1.10;;;;;;;;;;5083124;28;20060;-69
2023/03/27 00:23:59;;;;;;;13.75;1.45;;;;;;;;;;5085831;28;20055;-69
2023/03/27 00:26:29;;;;;;;13.95;1.42;;;;;;;;;;5083867;28;20059;-69
2023/03/27 00:28:58;;;;;;;10.98;1.13;;;;;;;;;;5063533;28;20064;-69
2023/03/27 00:31:25;;;;;;;11.35;1.38;;;;;;;;;;5082749;28;20052;-69
2023/03/27 00:33:52;;;;;;;9.65;1.05;;;;;;;;;;5081374;28;20045;-69
2023/03/27 00:36:20;;;;;;;5.97;0.82;;;;;;;;;;5079687;28;20135;-69
2023/03/27 00:38:47;;;;;;;6.05;0.70;;;;;;;;;;5084641;28;20044;-69
2023/03/27 00:41:15;;;;;;;8.13;0.60;;;;;;;;;;5080387;28;20051;-69
2023/03/27 00:43:43;;;;;;;5.75;0.57;;;;;;;;;;5085445;28;20487;-69
2023/03/27 00:46:23;;;;;;;8.40;1.20;;;;;;;;;;5082117;28;20146;-69
2023/03/27 00:48:52;;;;;;;8.63;0.95;;;;;;;;;;5063586;28;20059;-69
2023/03/27 00:51:19;;;;;;;7.85;1.23;;;;;;;;;;5082836;28;20544;-69
2023/03/27 00:53:47;;;;;;;4.60;0.82;;;;;;;;;;5082039;28;20278;-69
2023/03/27 00:56:15;;;;;;;8.38;1.00;;;;;;;;;;5077600;28;20049;-69
2023/03/27 00:58:44;;;;;;;10.18;0.80;;;;;;;;;;5062388;28;20514;-69
2023/03/27 01:01:13;;;;;;;7.57;1.20;;;;;;;;;;5079031;28;20395;-69
2023/03/27 01:03:44;;;;;;;9.75;1.02;;;;;;;;;;5083997;28;20051;-69
2023/03/27 01:06:12;;;;;;;12.13;2.28;;;;;;;;;;5085588;28;20048;-69
2023/03/27 01:08:42;;;;;;;9.15;1.02;;;;;;;;;;5085893;28;20040;-69
2023/03/27 01:11:15;;;;;;;8.95;0.88;;;;;;;;;;5080910;28;20395;-69
2023/03/27 01:13:55;;;;;;;12.30;1.27;;;;;;;;;;5066405;28;20055;-69
2023/03/27 01:16:24;;;;;;;6.63;1.17;;;;;;;;;;5083530;28;20044;-69
2023/03/27 01:18:58;;;;;;;8.60;2.17;;;;;;;;;;5085313;28;20394;-69
2023/03/27 01:21:39;;;;;;;12.63;1.00;;;;;;;;;;5085091;28;20044;-69
2023/03/27 01:24:37;;;;;;;6.40;1.02;;;;;;;;;;5088194;28;20484;-69
2023/03/27 01:27:09;;;;;;;8.40;1.23;;;;;;;;;;5079488;28;20044;-69
2023/03/27 01:29:47;;;;;;;6.95;0.88;;;;;;;;;;5080457;28;20044;-69
2023/03/27 01:32:32;;;;;;;10.90;1.00;;;;;;;;;;5086990;28;20059;-69
2023/03/27 01:35:20;;;;;;;15.05;1.25;;;;;;;;;;5089108;28;20063;-69
2023/03/27 01:37:57;;;;;;;8.25;0.80;;;;;;;;;;5055401;28;20139;-69
2023/03/27 01:40:27;;;;;;;7.50;1.05;;;;;;;;;;5083174;28;20483;-69
2023/03/27 01:42:59;;;;;;;8.10;1.05;;;;;;;;;;5084115;28;20047;-69
2023/03/27 01:45:30;;;;;;;11.57;1.27;;;;;;;;;;5068920;28;20047;-69
2023/03/27 01:48:00;;;;;;;6.25;1.33;;;;;;;;;;5084827;28;20507;-69
2023/03/27 01:50:30;;;;;;;11.48;1.10;;;;;;;;;;5084902;28;20056;-69
2023/03/27 01:53:01;;;;;;;9.35;1.15;;;;;;;;;;5064397;28;20083;-69
2023/03/27 01:55:33;;;;;;;7.28;1.20;;;;;;;;;;5083499;28;20049;-69
2023/03/27 01:58:01;;;;;;;15.75;1.42;;;;;;;;;;5080012;28;20055;-69
2023/03/27 02:00:29;;;;;;;8.82;1.33;;;;;;;;;;5086032;28;20048;-69
2023/03/27 02:02:59;;;;;;;7.43;0.90;;;;;;;;;;5082946;28;20036;-69
2023/03/27 02:05:30;;;;;;;5.38;0.90;;;;;;;;;;5063359;28;20063;-69
2023/03/27 02:08:00;;;;;;;9.85;1.33;;;;;;;;;;5085631;28;20093;-69
2023/03/27 02:10:28;;;;;;;4.88;1.35;;;;;;;;;;5079992;28;20055;-69
2023/03/27 02:12:59;;;;;;;6.47;0.80;;;;;;;;;;5080436;28;20484;-69
2023/03/27 02:15:30;;;;;;;9.32;0.73;;;;;;;;;;5087979;28;20131;-69
2023/03/27 02:18:03;;;;;;;12.48;1.13;;;;;;;;;;5062163;28;20048;-69
2023/03/27 02:20:31;;;;;;;12.40;1.73;;;;;;;;;;5083961;28;20044;-69
2023/03/27 02:23:00;;;;;;;11.85;1.45;;;;;;;;;;5081863;28;20085;-69
2023/03/27 02:25:30;;;;;;;11.23;1.10;;;;;;;;;;5083083;28;20101;-69
2023/03/27 02:28:09;;;;;;;8.73;0.93;;;;;;;;;;5077146;28;20048;-70
2023/03/27 02:30:39;;;;;;;6.70;1.20;;;;;;;;;;5085317;28;20087;-69
2023/03/27 02:33:13;;;;;;;7.68;1.00;;;;;;;;;;5080886;28;20551;-68
2023/03/27 02:35:45;;;;;;;5.78;1.10;;;;;;;;;;5085245;28;20048;-67
2023/03/27 02:38:17;;;;;;;6.57;0.80;;;;;;;;;;5083994;28;20048;-67
2023/03/27 02:40:47;;;;;;;4.30;0.75;;;;;;;;;;5082740;28;20041;-70
2023/03/27 02:43:20;;;;;;;6.90;1.00;;;;;;;;;;5077566;28;20051;-70
2023/03/27 02:45:51;;;;;;;10.38;1.77;;;;;;;;;;5064570;28;20048;-70
2023/03/27 02:48:23;;;;;;;4.30;0.82;;;;;;;;;;5077959;28;20155;-70
2023/03/27 02:50:53;;;;;;;4.97;0.90;;;;;;;;;;5081547;28;20044;-70
2023/03/27 02:53:23;;;;;;;3.47;1.00;;;;;;;;;;5085013;28;20719;-70
2023/03/27 02:55:52;;;;;;;6.88;1.00;;;;;;;;;;5084915;28;20514;-70
2023/03/27 02:58:25;;;;;;;8.95;1.00;;;;;;;;;;5086268;28;20526;-70
2023/03/27 03:00:53;;;;;;;6.78;0.90;;;;;;;;;;5080662;28;20127;-73
2023/03/27 03:03:26;;;;;;;9.55;1.23;;;;;;;;;;5084172;28;20052;-73
2023/03/27 03:05:53;;;;;;;9.57;1.10;;;;;;;;;;5080554;28;20046;-73
2023/03/27 03:08:21;;;;;;;3.85;1.15;;;;;;;;;;5063510;28;20056;-73
2023/03/27 03:10:48;;;;;;;9.32;1.15;;;;;;;;;;5086331;28;20517;-73
2023/03/27 03:13:16;;;;;;;9.20;0.98;;;;;;;;;;5064452;28;20055;-73
2023/03/27 03:15:45;;;;;;;13.50;1.20;;;;;;;;;;5086285;28;20063;-73
2023/03/27 03:18:13;;;;;;;5.07;1.27;;;;;;;;;;5078064;28;20072;-73
2023/03/27 03:20:40;;;;;;;9.07;1.67;;;;;;;;;;5081675;28;20123;-73
2023/03/27 03:23:07;;;;;;;12.45;1.58;;;;;;;;;;5083094;28;20052;-74
2023/03/27 03:25:35;;;;;;;16.05;2.25;;;;;;;;;;5085952;28;20040;-74
2023/03/27 03:28:06;;;;;;;12.60;1.60;;;;;;;;;;5079821;28;20040;-73
2023/03/27 03:30:36;;;;;;;13.05;1.77;;;;;;;;;;5059572;28;20044;-74
2023/03/27 03:33:04;;;;;;;13.75;1.80;;;;;;;;;;5081242;28;20045;-73
2023/03/27 03:35:33;;;;;;;15.50;1.70;;;;;;;;;;5083835;28;20067;-73
2023/03/27 03:38:00;;;;;;;9.80;1.60;;;;;;;;;;5083676;28;20387;-73
2023/03/27 03:40:28;;;;;;;11.30;2.30;;;;;;;;;;5069807;28;20048;-74
2023/03/27 03:42:55;;;;;;;7.63;1.65;;;;;;;;;;5088380;28;20060;-74
2023/03/27 03:45:22;;;;;;;12.93;1.80;;;;;;;;;;5087963;28;20062;-74
2023/03/27 03:47:49;;;;;;;19.48;2.75;;;;;;;;;;5086956;28;20052;-74
2023/03/27 03:50:18;;;;;;;16.88;2.40;;;;;;;;;;5087324;28;20308;-74
2023/03/27 03:52:46;;;;;;;10.80;1.70;;;;;;;;;;5087439;28;20052;-74
2023/03/27 03:55:14;;;;;;;23.00;1.70;;;;;;;;;;5084104;28;20055;-74
2023/03/27 03:57:45;;;;;;;8.68;1.88;;;;;;;;;;5074761;28;20078;-74
2023/03/27 04:00:15;;;;;;;12.77;1.58;;;;;;;;;;5089157;28;20047;-73
2023/03/27 04:02:42;;;;;;;13.07;1.65;;;;;;;;;;5089457;28;20632;-73
2023/03/27 04:05:10;;;;;;;14.30;1.65;;;;;;;;;;5083258;28;20052;-74
2023/03/27 04:07:39;;;;;;;7.30;1.20;;;;;;;;;;5083848;28;20072;-74
2023/03/27 04:10:08;;;;;;;6.32;1.10;;;;;;;;;;5086672;28;20060;-74
2023/03/27 04:12:35;;;;;;;7.18;0.90;;;;;;;;;;5084172;28;20159;-74
2023/03/27 04:15:02;;;;;;;12.55;0.90;;;;;;;;;;5084897;28;20055;-74
2023/03/27 04:17:32;;;;;;;7.78;1.00;;;;;;;;;;5064361;28;20059;-73
2023/03/27 04:20:04;;;;;;;2.65;0.50;;;;;;;;;;5078942;28;20380;-74
2023/03/27 04:22:36;;;;;;;7.23;0.90;;;;;;;;;;5076421;28;20048;-74
2023/03/27 04:25:06;;;;;;;9.23;0.93;;;;;;;;;;5079458;28;20109;-74
2023/03/27 04:27:34;;;;;;;9.48;0.98;;;;;;;;;;5067484;28;20083;-74
2023/03/27 04:30:02;;;;;;;13.30;2.63;;;;;;;;;;5083737;28;20056;-74
2023/03/27 04:32:30;;;;;;;11.60;1.90;;;;;;;;;;5082338;28;20058;-73
2023/03/27 04:34:57;;;;;;;15.88;1.25;;;;;;;;;;5065092;28;20054;-74
2023/03/27 04:37:24;;;;;;;6.45;0.90;;;;;;;;;;5081104;28;20048;-74
2023/03/27 04:39:52;;;;;;;12.35;1.67;;;;;;;;;;5085856;28;20056;-74
2023/03/27 04:42:22;;;;;;;11.23;1.35;;;;;;;;;;5068349;28;20047;-73
2023/03/27 04:44:51;;;;;;;14.00;1.27;;;;;;;;;;5063523;28;20059;-74
2023/03/27 04:47:19;;;;;;;11.20;1.27;;;;;;;;;;5084289;28;20101;-73
2023/03/27 04:49:49;;;;;;;7.82;0.75;;;;;;;;;;5084430;28;20044;-74
2023/03/27 04:52:17;;;;;;;8.65;0.90;;;;;;;;;;5069887;28;20052;-73
2023/03/27 04:54:45;;;;;;;13.80;1.27;;;;;;;;;;5069803;28;20048;-74
2023/03/27 04:57:14;;;;;;;8.65;0.80;;;;;;;;;;5087441;28;20102;-73
2023/03/27 04:59:43;;;;;;;8.45;0.73;;;;;;;;;;5085559;28;20040;-74
2023/03/27 05:02:11;;;;;;;6.35;0.77;;;;;;;;;;5086847;28;20098;-73
2023/03/27 05:04:39;;;;;;;3.97;0.70;;;;;;;;;;5085666;28;20050;-74
2023/03/27 05:07:06;;;;;;;10.18;1.45;;;;;;;;;;5086085;28;20044;-73
2023/03/27 05:09:33;;;;;;;7.78;0.70;;;;;;;;;;5065701;28;20056;-74
2023/03/27 05:12:01;;;;;;;7.03;0.77;;;;;;;;;;5086380;28;20044;-73
2023/03/27 05:14:28;;;;;;;8.98;0.82;;;;;;;;;;5083161;28;20076;-74
2023/03/27 05:16:59;;;;;;;13.15;0.80;;;;;;;;;;5087210;28;20040;-68
2023/03/27 05:19:26;;;;;;;8.20;0.73;;;;;;;;;;5086249;28;20087;-68
2023/03/27 05:21:54;;;;;;;12.68;0.80;;;;;;;;;;5086764;28;20048;-68
2023/03/27 05:24:21;;;;;;;8.32;1.00;;;;;;;;;;5067173;28;20055;-68
2023/03/27 05:26:48;;;;;;;8.98;1.08;;;;;;;;;;5083457;28;20054;-68
2023/03/27 05:29:16;;;;;;;7.03;0.70;;;;;;;;;;5081727;28;20485;-68
2023/03/27 05:31:43;;;;;;;4.95;0.47;;;;;;;;;;5084454;28;20064;-68
2023/03/27 05:34:12;;;;;;;6.32;0.77;;;;;;;;;;5062593;28;20101;-68
2023/03/27 05:36:39;;;;;;;14.32;1.23;;;;;;;;;;5081893;28;20058;-68
2023/03/27 05:39:06;;;;;;;5.88;1.00;;;;;;;;;;5066184;28;20048;-67
2023/03/27 05:41:34;;;;;;;5.65;0.70;;;;;;;;;;5084650;28;20093;-68
2023/03/27 05:44:02;;;;;;;7.38;2.90;;;;;;;;;;5080582;28;20044;-68
2023/03/27 05:46:30;;;;;;;9.00;1.38;;;;;;;;;;5079297;28;20070;-67
2023/03/27 05:48:58;;;;;;;11.43;1.00;;;;;;;;;;5079382;28;20480;-68
2023/03/27 05:51:27;;;;;;;7.47;1.00;;;;;;;;;;5086305;28;20052;-67
2023/03/27 05:53:54;;;;;;;9.02;1.48;;;;;;;;;;5087398;28;20043;-67
2023/03/27 05:56:21;;;;;;;16.58;1.35;;;;;;;;;;5083462;28;20134;-68
2023/03/27 05:58:49;;;;;;;15.35;1.33;;;;;;;;;;5083717;28;20083;-68
2023/03/27 06:01:16;;;;;;;15.88;1.10;;;;;;;;;;5084406;28;20059;-68
2023/03/27 06:03:43;;;;;;;17.35;1.67;;;;;;;;;;5086618;28;20051;-68
2023/03/27 06:06:12;;;;;;;8.32;1.00;;;;;;;;;;5085439;28;20048;-68
2023/03/27 06:08:41;;;;;;;15.25;2.75;;;;;;;;;;5084357;28;20438;-68
2023/03/27 06:11:08;;;;;;;13.32;1.10;;;;;;;;;;5082045;28;20044;-68
2023/03/27 06:13:36;;;;;;;9.82;1.33;;;;;;;;;;5076654;28;20044;-68
2023/03/27 06:16:04;;;;;;;8.15;0.93;;;;;;;;;;5081637;28;20054;-68
2023/03/27 06:18:32;;;;;;;10.25;0.93;;;;;;;;;;5086818;28;20048;-68
2023/03/27 06:20:59;;;;;;;8.93;1.10;;;;;;;;;;5084249;28;20060;-68
2023/03/27 06:23:27;;;;;;;9.35;1.10;;;;;;;;;;5068728;28;20414;-68
2023/03/27 06:25:55;;;;;;;4.97;0.82;;;;;;;;;;5083964;28;20048;-68
2023/03/27 06:28:23;;;;;;;8.15;0.93;;;;;;;;;;5068170;28;20066;-68
2023/03/27 06:30:50;;;;;;;9.23;1.05;;;;;;;;;;5086504;28;20597;-68
2023/03/27 06:33:18;;;;;;;10.35;1.30;;;;;;;;;;5085097;28;20051;-68
2023/03/27 06:35:45;;;;;;;3.70;0.80;;;;;;;;;;5064968;28;20088;-68
2023/03/27 06:38:14;;;;;;;10.98;0.85;;;;;;;;;;5082661;28;20044;-68
2023/03/27 06:40:41;;;;;;;13.25;1.20;;;;;;;;;;5081354;28;20441;-68
2023/03/27 06:43:11;;;;;;;11.73;1.50;;;;;;;;;;5083148;28;20052;-68
2023/03/27 06:45:42;;;;;;;8.60;1.75;;;;;;;;;;5082839;28;20494;-68
2023/03/27 06:48:10;;;;;;;14.55;2.00;;;;;;;;;;5082550;28;20048;-68
2023/03/27 06:50:37;;;;;;;13.05;1.27;;;;;;;;;;5062200;28;20141;-68
2023/03/27 06:53:05;;;;;;;10.10;1.48;;;;;;;;;;5084845;28;20210;-68
2023/03/27 06:55:33;;;;;;;13.05;1.60;;;;;;;;;;5084678;28;20059;-68
2023/03/27 06:58:02;;;;;;;17.23;3.05;;;;;;;;;;5060584;28;20388;-67
2023/03/27 07:00:32;;;;;;;16.48;1.50;;;;;;;;;;5064135;28;20135;-68
2023/03/27 07:03:01;;;;;;;9.27;1.38;;;;;;;;;;5088475;28;20046;-68
2023/03/27 07:05:29;;;;;;;9.25;0.95;;;;;;;;;;5080680;28;20044;-67
2023/03/27 07:07:56;;;;;;;4.80;1.10;;;;;;;;;;5088915;28;20518;-68
2023/03/27 07:10:25;;;;;;;6.68;0.80;;;;;;;;;;5075458;28;20136;-68
2023/03/27 07:12:54;;;;;;;9.20;1.88;;;;;;;;;;5071215;28;20060;-68
2023/03/27 07:15:22;;;;;;;10.75;0.98;;;;;;;;;;5088743;28;20047;-67
2023/03/27 07:17:54;;;;;;;7.95;0.85;;;;;;;;;;5086391;28;20052;-68
2023/03/27 07:20:22;;;;;;;7.13;1.05;;;;;;;;;;5090981;28;20052;-68
2023/03/27 07:22:50;;;;;;;11.32;1.33;;;;;;;;;;5071567;28;20109;-68
2023/03/27 07:25:17;;;;;;;14.02;1.52;;;;;;;;;;5090207;28;20059;-68
2023/03/27 07:27:45;;;;;;;6.30;1.02;;;;;;;;;;5088606;28;20127;-68
2023/03/27 07:30:13;;;;;;;9.77;1.67;;;;;;;;;;5090199;28;20125;-68
2023/03/27 07:32:40;;;;;;;9.63;1.13;;;;;;;;;;5085964;28;20056;-68
2023/03/27 07:35:10;;;;;;;9.38;0.80;;;;;;;;;;5087825;28;20110;-68
2023/03/27 07:37:38;;;;;;;8.63;1.00;;;;;;;;;;5087054;28;20082;-68
2023/03/27 07:40:06;;;;;;;12.38;1.50;;;;;;;;;;5084583;28;20144;-68
2023/03/27 07:42:34;;;;;;;9.68;0.90;;;;;;;;;;5066874;28;20044;-69
2023/03/27 07:45:01;;;;;;;15.95;1.45;;;;;;;;;;5086186;28;20054;-68
2023/03/27 07:47:28;;;;;;;12.10;1.60;;;;;;;;;;5087963;28;20044;-69
2023/03/27 07:49:56;;;;;;;21.02;2.00;;;;;;;;;;5086056;28;20133;-68
2023/03/27 07:52:24;;;;;;;13.35;1.50;;;;;;;;;;5080049;28;20056;-68
2023/03/27 07:54:52;;;;;;;16.95;1.83;;;;;;;;;;5079896;28;20044;-68
2023/03/27 07:57:19;;;;;;;11.55;1.48;;;;;;;;;;5081872;28;20064;-68
2023/03/27 07:59:46;;;;;;;11.05;1.70;;;;;;;;;;5085362;28;20514;-68
2023/03/27 08:02:14;;;;;;;7.63;0.93;;;;;;;;;;5080730;28;20452;-67
2023/03/27 08:04:41;;;;;;;5.35;0.80;;;;;;;;;;5086368;28;20052;-68
2023/03/27 08:07:10;;;;;;;5.38;0.63;;;;;;;;;;5090166;28;20052;-68
2023/03/27 08:09:39;;;;;;;6.63;0.88;;;;;;;;;;5078440;28;20054;-68
2023/03/27 08:12:06;;;;;;;8.77;0.73;;;;;;;;;;5088402;28;20040;-68
2023/03/27 08:14:34;;;;;;;2.08;0.50;;;;;;;;;;5086778;28;20089;-68
2023/03/27 08:17:01;;;;;;;4.15;0.60;;;;;;;;;;5089201;28;20048;-67
2023/03/27 08:19:28;;;;;;;3.20;0.50;;;;;;;;;;5088954;28;20522;-68
2023/03/27 08:21:55;;;;;;;3.30;0.55;;;;;;;;;;5083515;28;20426;-68
2023/03/27 08:24:23;;;;;;;4.03;0.70;;;;;;;;;;5084961;28;20496;-68
2023/03/27 08:26:51;;;;;;;6.50;0.70;;;;;;;;;;5082580;28;21421;-68
2023/03/27 08:29:19;;;;;;;7.07;0.82;;;;;;;;;;5086952;28;20048;-68
2023/03/27 08:31:46;;;;;;;3.83;0.82;;;;;;;;;;5088298;28;20044;-68
2023/03/27 08:34:13;;;;;;;4.18;0.82;;;;;;;;;;5081871;28;20062;-68
2023/03/27 08:36:40;;;;;;;8.63;1.58;;;;;;;;;;5085634;28;20131;-68
2023/03/27 08:39:08;;;;;;;15.95;3.03;;;;;;;;;;5089694;28;20044;-68
2023/03/27 08:41:37;;;;;;;9.10;1.55;;;;;;;;;;5067023;28;20055;-68
2023/03/27 08:44:08;;;;;;;14.40;2.60;;;;;;;;;;5085091;28;20539;-68
2023/03/27 08:46:38;;;;;;;20.20;2.72;;;;;;;;;;5085254;28;20396;-68
2023/03/27 08:49:07;;;;;;;13.63;3.58;;;;;;;;;;5085231;28;20048;-68
2023/03/27 08:51:38;;;;;;;11.80;1.30;;;;;;;;;;5076502;28;20040;-68
2023/03/27 08:54:08;;;;;;;4.90;1.30;;;;;;;;;;5072352;28;20114;-68
2023/03/27 08:56:36;;;;;;;11.13;1.92;;;;;;;;;;5084476;28;20131;-68
2023/03/27 08:59:04;;;;;;;6.53;1.00;;;;;;;;;;5085418;28;20047;-68
2023/03/27 09:01:37;;;;;;;14.70;1.40;;;;;;;;;;5070645;28;20101;-68
2023/03/27 09:04:09;;;;;;;8.32;1.75;;;;;;;;;;5087839;28;20047;-68
2023/03/27 09:06:41;;;;;;;4.43;0.88;;;;;;;;;;5086553;28;20051;-68
2023/03/27 09:09:13;;;;;;;8.07;0.88;;;;;;;;;;5086334;28;20061;-69
2023/03/27 09:11:48;;;;;;;6.22;0.98;;;;;;;;;;5088077;28;20546;-68
2023/03/27 09:14:20;;;;;;;6.63;0.85;;;;;;;;;;5088247;28;20058;-68
2023/03/27 09:16:50;;;;;;;7.97;0.90;;;;;;;;;;5085548;28;20039;-68
2023/03/27 09:19:21;;;;;;;7.45;0.90;;;;;;;;;;5087580;28;20047;-68
2023/03/27 09:21:49;;;;;;;5.25;0.70;;;;;;;;;;5084505;28;20044;-68
2023/03/27 09:24:21;;;;;;;3.70;0.60;;;;;;;;;;5083506;28;20717;-68
2023/03/27 09:26:50;;;;;;;5.40;0.57;;;;;;;;;;5078953;28;20044;-68
2023/03/27 09:29:20;;;;;;;3.63;0.50;;;;;;;;;;5088229;28;20040;-68
2023/03/27 09:31:49;;;;;;;5.43;0.52;;;;;;;;;;5085815;28;20357;-68
2023/03/27 09:34:21;;;;;;;9.57;1.05;;;;;;;;;;5087167;28;20793;-68
2023/03/27 09:36:49;;;;;;;4.55;0.68;;;;;;;;;;5068494;28;20063;-68
2023/03/27 09:39:20;;;;;;;6.63;1.15;;;;;;;;;;5086409;28;20052;-68
2023/03/27 09:41:49;;;;;;;5.38;0.80;;;;;;;;;;5086684;28;20044;-68
2023/03/27 09:44:24;;;;;;;13.63;0.80;;;;;;;;;;5085614;28;20044;-68
2023/03/27 09:46:56;;;;;;;4.65;0.80;;;;;;;;;;5085025;28;20422;-68
2023/03/27 09:49:24;;;;;;;6.95;1.02;;;;;;;;;;5082028;28;20048;-68
2023/03/27 09:51:52;;;;;;;9.13;0.77;;;;;;;;;;5076719;28;20059;-68
2023/03/27 09:54:20;;;;;;;8.77;1.05;;;;;;;;;;5087288;28;20105;-68
2023/03/27 09:56:48;;;;;;;11.38;1.67;;;;;;;;;;5075546;28;20538;-68
2023/03/27 09:59:26;;;;;;;8.98;0.80;;;;;;;;;;5074522;28;20530;-68
2023/03/27 10:01:56;;;;;;;3.97;0.90;;;;;;;;;;5080410;28;20040;-68
2023/03/27 10:04:24;;;;;;;4.20;1.38;;;;;;;;;;5087621;28;20449;-69
2023/03/27 10:06:58;;;;;;;19.73;8.45;;;;;;;;;;5084049;28;20052;-68
2023/03/27 10:09:26;;;;;;;16.73;1.60;;;;;;;;;;5086304;28;20135;-68
2023/03/27 10:12:00;;;;;;;8.63;3.22;;;;;;;;;;5061207;28;20055;-69
2023/03/27 10:14:28;;;;;;;11.93;2.33;;;;;;;;;;5086157;28;20052;-68
2023/03/27 10:16:57;;;;;;;8.82;1.23;;;;;;;;;;5062353;28;20043;-68
2023/03/27 10:19:27;;;;;;;4.13;0.88;;;;;;;;;;5062660;28;20058;-68
2023/03/27 10:21:55;;;;;;;8.55;4.30;;;;;;;;;;5071071;28;20404;-68
2023/03/27 10:24:27;;;;;;;5.93;2.50;;;;;;;;;;5083768;28;20059;-74
2023/03/27 10:26:55;;;;;;;7.05;3.13;;;;;;;;;;5083277;28;20088;-74
2023/03/27 10:29:24;;;;;;;36.22;24.15;;;;;;;;;;5077862;28;20060;-73
2023/03/27 10:31:52;;;;;;;138.48;97.60;;;;;;;;;;5078159;28;20051;-74
2023/03/27 10:34:32;;;;;;;7.90;1.70;;;;;;;;;;5078852;28;20136;-74
2023/03/27 10:37:02;;;;;;;8.10;1.23;;;;;;;;;;5080990;28;20052;-73
2023/03/27 10:39:30;;;;;;;8.10;1.70;;;;;;;;;;5082771;28;20118;-74
2023/03/27 10:41:58;;;;;;;8.40;1.00;;;;;;;;;;5086410;28;20048;-74
2023/03/27 10:44:27;;;;;;;7.75;0.90;;;;;;;;;;5086669;28;20040;-74
2023/03/27 10:46:55;;;;;;;7.63;1.15;;;;;;;;;;5089397;28;20048;-74
2023/03/27 10:49:27;;;;;;;7.10;1.20;;;;;;;;;;5088981;28;20048;-74
2023/03/27 10:51:59;;;;;;;11.33;1.13;;;;;;;;;;5085376;28;20475;-74
2023/03/27 10:54:33;;;;;;;10.48;1.20;;;;;;;;;;5087007;28;20617;-74
2023/03/27 10:57:02;;;;;;;11.23;1.60;;;;;;;;;;5083729;28;20078;-74
2023/03/27 10:59:31;;;;;;;9.20;1.25;;;;;;;;;;5090518;28;20395;-74
2023/03/27 11:02:01;;;;;;;3.42;0.60;;;;;;;;;;5088877;28;20044;-74
2023/03/27 11:04:33;;;;;;;9.13;1.00;;;;;;;;;;5087135;28;20071;-76
2023/03/27 11:07:03;;;;;;;12.97;1.30;;;;;;;;;;5069136;28;20064;-72
2023/03/27 11:09:31;;;;;;;69.18;27.42;;;;;;;;;;5085380;28;20297;-74
2023/03/27 11:12:03;;;;;;;20.73;5.55;;;;;;;;;;5071592;28;20055;-74
2023/03/27 11:14:33;;;;;;;35.10;19.60;;;;;;;;;;5089866;28;20047;-74
2023/03/27 11:17:03;;;;;;;20.13;9.35;;;;;;;;;;5083090;28;20044;-74
2023/03/27 11:19:33;;;;;;;112.03;68.43;;;;;;;;;;5060458;28;20127;-74
2023/03/27 11:22:05;;;;;;;35.20;15.60;;;;;;;;;;5060930;28;20052;-74
2023/03/27 11:24:37;;;;;;;18.30;7.28;;;;;;;;;;5087123;28;20048;-74
2023/03/27 11:27:05;;;;;;;25.77;10.45;;;;;;;;;;5066196;28;20058;-74
2023/03/27 11:29:35;;;;;;;7.55;2.15;;;;;;;;;;5065810;28;20044;-74
2023/03/27 11:32:04;;;;;;;10.73;1.45;;;;;;;;;;5084645;28;20048;-74
2023/03/27 11:34:34;;;;;;;10.52;1.30;;;;;;;;;;5082133;28;20059;-73
2023/03/27 11:37:05;;;;;;;13.50;1.63;;;;;;;;;;5084943;28;20133;-75
2023/03/27 11:39:35;;;;;;;110.90;59.28;;;;;;;;;;5067953;28;20055;-75
2023/03/27 11:42:10;;;;;;;16.75;6.60;;;;;;;;;;5084688;28;20054;-75
2023/03/27 11:44:37;;;;;;;22.02;9.70;;;;;;;;;;5087420;28;20700;-75
2023/03/27 11:47:11;;;;;;;12.80;2.40;;;;;;;;;;5065048;28;20101;-75
2023/03/27 11:49:47;;;;;;;14.43;2.83;;;;;;;;;;5069352;28;20055;-75
2023/03/27 11:52:20;;;;;;;11.45;2.17;;;;;;;;;;5083956;28;20116;-75
2023/03/27 11:54:47;;;;;;;;;;;;;;;;;;5084283;28;20043;-74
2023/03/27 11:57:19;;;;;;;11.88;1.58;;;;;;;;;;5068362;28;19943;-75
2023/03/27 11:59:54;;;;;;;6.82;1.50;;;;;;;;;;5070768;28;20048;-75
2023/03/27 12:02:34;;;;;;;13.85;1.95;;;;;;;;;;5090401;28;20044;-75
2023/03/27 12:05:03;;;;;;;14.63;4.53;;;;;;;;;;5082538;28;20054;-75
2023/03/27 12:07:39;;;;;;;16.90;5.53;;;;;;;;;;5072325;28;20250;-75
2023/03/27 12:10:15;;;;;;;23.17;13.77;;;;;;;;;;5068943;28;20044;-75
2023/03/27 12:13:01;;;;;;;19.63;3.67;;;;;;;;;;5087802;28;20775;-75
2023/03/27 12:15:43;;;;;;;9.30;1.42;;;;;;;;;;5086340;28;20044;-74
2023/03/27 12:18:17;;;;;;;8.93;1.38;;;;;;;;;;5087455;28;20040;-74
2023/03/27 12:20:51;;;;;;;8.40;1.52;;;;;;;;;;5065247;28;20087;-75
2023/03/27 12:23:36;;;;;;;11.73;2.22;;;;;;;;;;5066598;28;20124;-75
2023/03/27 12:26:12;;;;;;;15.52;3.92;;;;;;;;;;5083515;28;20051;-71
2023/03/27 12:28:44;;;;;;;19.50;5.28;;;;;;;;;;5068200;28;20063;-70
2023/03/27 12:31:22;;;;;;;13.82;2.85;;;;;;;;;;5086781;28;20048;-70
2023/03/27 12:33:54;;;;;;;13.18;1.70;;;;;;;;;;5065866;28;20495;-70
2023/03/27 12:36:23;;;;;;;9.82;1.30;;;;;;;;;;5081108;28;20135;-71
2023/03/27 12:38:51;;;;;;;7.13;1.42;;;;;;;;;;5066070;28;20063;-70
2023/03/27 12:41:29;;;;;;;9.18;1.45;;;;;;;;;;5066126;28;20125;-70
2023/03/27 12:43:57;;;;;;;9.80;1.58;;;;;;;;;;5066798;28;20131;-72
2023/03/27 12:46:32;;;;;;;10.77;1.40;;;;;;;;;;5066935;28;20052;-70
2023/03/27 12:49:01;;;;;;;9.73;1.30;;;;;;;;;;5068386;28;20403;-70
2023/03/27 12:51:52;;;;;;;8.98;1.65;;;;;;;;;;5067255;28;20048;-70
2023/03/27 12:54:24;;;;;;;5.93;1.10;;;;;;;;;;5039592;28;20041;-70
2023/03/27 12:57:03;;;;;;;9.30;1.40;;;;;;;;;;5066720;28;20060;-70
2023/03/27 12:59:32;;;;;;;8.40;1.55;;;;;;;;;;5069653;28;20047;-70
2023/03/27 13:02:17;;;;;;;14.27;5.43;;;;;;;;;;5068770;28;20056;-70
2023/03/27 13:05:09;;;;;;;116.53;43.83;;;;;;;;;;5086134;28;20056;-70
2023/03/27 13:07:42;;;;;;;189.73;80.55;;;;;;;;;;5055355;28;20098;-70
2023/03/27 13:10:17;;;;;;;16.08;4.05;;;;;;;;;;5067438;28;20044;-70
2023/03/27 13:12:57;;;;;;;8.57;3.95;;;;;;;;;;5066644;28;20082;-70
2023/03/27 13:15:33;;;;;;;14.68;8.52;;;;;;;;;;5067755;28;20048;-69
2023/03/27 13:18:13;;;;;;;8.02;1.75;;;;;;;;;;5066824;28;20052;-69
2023/03/27 13:20:47;;;;;;;13.98;8.15;;;;;;;;;;5066327;28;20127;-70
2023/03/27 13:23:26;;;;;;;7.30;2.78;;;;;;;;;;5066911;28;21044;-70
2023/03/27 13:26:00;;;;;;;4.82;1.10;;;;;;;;;;5068493;28;20055;-70
2023/03/27 13:28:34;;;;;;;7.95;1.10;;;;;;;;;;5084396;28;20414;-70
2023/03/27 13:31:03;;;;;;;3.78;1.25;;;;;;;;;;5083942;28;20047;-70
2023/03/27 13:33:39;;;;;;;8.35;1.50;;;;;;;;;;5066584;28;20122;-70
2023/03/27 13:36:09;;;;;;;7.10;1.35;;;;;;;;;;5068273;28;20044;-70
2023/03/27 13:39:03;;;;;;;15.38;3.25;;;;;;;;;;5068308;28;20060;-70
2023/03/27 13:41:40;;;;;;;14.98;2.80;;;;;;;;;;5010627;28;20046;-70
2023/03/27 13:44:13;;;;;;;12.70;1.75;;;;;;;;;;5083904;28;20052;-70
2023/03/27 13:46:42;;;;;;;12.73;2.05;;;;;;;;;;5067142;28;20514;-70
2023/03/27 13:49:24;;;;;;;11.23;1.60;;;;;;;;;;5086903;28;20494;-70
2023/03/27 13:51:58;;;;;;;11.77;1.67;;;;;;;;;;5060459;28;20137;-69
2023/03/27 13:54:40;;;;;;;10.45;1.67;;;;;;;;;;5066292;28;20520;-69
2023/03/27 13:57:16;;;;;;;10.98;1.77;;;;;;;;;;5083113;28;20063;-70
2023/03/27 13:59:57;;;;;;;6.80;1.60;;;;;;;;;;5085674;28;20052;-70
2023/03/27 14:02:46;;;;;;;32.70;19.95;;;;;;;;;;5086006;28;20036;-70
2023/03/27 14:05:21;;;;;;;16.33;11.25;;;;;;;;;;5064033;28;20044;-70
2023/03/27 14:07:58;;;;;;;56.30;37.97;;;;;;;;;;5083874;28;20060;-70
2023/03/27 14:10:33;;;;;;;228.07;149.23;;;;;;;;;;5061867;28;20059;-70
2023/03/27 14:13:07;;;;;;;35.22;24.20;;;;;;;;;;5064888;28;20524;-69
2023/03/27 14:15:47;;;;;;;4.93;1.10;;;;;;;;;;5084828;28;20467;-69
2023/03/27 14:18:24;;;;;;;4.63;0.98;;;;;;;;;;5083568;28;20052;-70
2023/03/27 14:20:55;;;;;;;4.60;0.70;;;;;;;;;;5085866;28;20048;-70
2023/03/27 14:23:27;;;;;;;9.88;1.30;;;;;;;;;;5077667;28;20061;-70
2023/03/27 14:25:59;;;;;;;6.07;1.05;;;;;;;;;;5081734;28;20044;-70
2023/03/27 14:28:31;;;;;;;10.32;1.20;;;;;;;;;;5077301;28;20084;-70
2023/03/27 14:31:01;;;;;;;7.90;1.48;;;;;;;;;;5082293;28;20067;-70
2023/03/27 14:33:29;;;;;;;7.40;1.20;;;;;;;;;;5082454;28;20158;-70
2023/03/27 14:36:02;;;;;;;5.53;1.10;;;;;;;;;;5081358;28;20091;-70
2023/03/27 14:38:30;;;;;;;8.63;1.30;;;;;;;;;;5084242;28;20051;-70
2023/03/27 14:40:58;;;;;;;11.10;1.35;;;;;;;;;;5084941;28;20044;-70
2023/03/27 14:43:27;;;;;;;54.30;42.75;;;;;;;;;;5063260;28;20082;-70
2023/03/27 14:45:56;;;;;;;63.13;39.80;;;;;;;;;;5086333;28;20094;-70
2023/03/27 14:48:26;;;;;;;71.53;55.45;;;;;;;;;;5066469;28;20105;-70
2023/03/27 14:50:56;;;;;;;11.82;5.85;;;;;;;;;;5065212;28;20372;-70
2023/03/27 14:53:26;;;;;;;8.23;3.03;;;;;;;;;;5058914;28;20052;-70
2023/03/27 14:55:54;;;;;;;8.68;1.92;;;;;;;;;;5051629;28;20048;-70